createdAt,value
2023-03-17T00:00:39.154Z,4.50
2023-03-17T00:03:08.795Z,6.73
2023-03-17T00:05:37.568Z,6.93
2023-03-17T00:08:15.019Z,8.77
2023-03-17T00:10:43.917Z,10.03
2023-03-17T00:13:12.521Z,7.20
2023-03-17T00:15:40.967Z,6.87
2023-03-17T00:18:15.473Z,7.23
2023-03-17T00:20:44.089Z,6.63
2023-03-17T00:23:16.702Z,5.93
2023-03-17T00:25:46.902Z,5.20
2023-03-17T00:28:19.418Z,7.03
2023-03-17T00:30:48.890Z,4.80
2023-03-17T00:33:26.944Z,6.03
2023-03-17T00:35:55.783Z,6.47
2023-03-17T00:38:24.703Z,7.07
2023-03-17T00:40:52.840Z,6.07
2023-03-17T00:43:20.960Z,8.47
2023-03-17T00:45:49.440Z,6.80
2023-03-17T00:48:20.915Z,6.87
2023-03-17T00:50:50.524Z,5.80
2023-03-17T00:53:20.688Z,5.37
2023-03-17T00:55:50.006Z,9.27
2023-03-17T00:58:24.953Z,5.03
2023-03-17T01:00:53.542Z,6.47
2023-03-17T01:03:23.888Z,5.37
2023-03-17T01:05:54.093Z,6.30
2023-03-17T01:08:23.588Z,4.57
2023-03-17T01:10:51.777Z,6.27
2023-03-17T01:13:19.779Z,5.47
2023-03-17T01:15:49.607Z,4.60
2023-03-17T01:18:20.712Z,7.17
2023-03-17T01:20:51.003Z,9.30
2023-03-17T01:23:19.288Z,6.20
2023-03-17T01:25:47.274Z,5.30
2023-03-17T01:28:18.010Z,11.40
2023-03-17T01:30:47.094Z,5.57
2023-03-17T01:33:15.895Z,5.47
2023-03-17T01:35:45.803Z,5.83
2023-03-17T01:38:16.037Z,6.77
2023-03-17T01:40:46.911Z,4.37
2023-03-17T01:43:36.882Z,5.07
2023-03-17T01:46:29.520Z,4.63
2023-03-17T01:49:19.475Z,8.87
2023-03-17T01:51:55.307Z,5.93
2023-03-17T01:54:31.098Z,5.50
2023-03-17T01:57:06.017Z,7.13
2023-03-17T01:59:38.484Z,4.33
2023-03-17T02:02:09.343Z,4.30
2023-03-17T02:04:40.388Z,4.77
2023-03-17T02:07:10.885Z,7.73
2023-03-17T02:09:40.774Z,3.80
2023-03-17T02:12:10.882Z,6.23
2023-03-17T02:14:39.140Z,6.87
2023-03-17T02:17:07.448Z,5.00
2023-03-17T02:19:35.717Z,7.10
2023-03-17T02:22:05.389Z,4.10
2023-03-17T02:24:37.281Z,4.93
2023-03-17T02:27:09.891Z,7.77
2023-03-17T02:29:38.260Z,8.63
2023-03-17T02:32:07.403Z,5.40
2023-03-17T02:34:36.007Z,5.17
2023-03-17T02:37:06.567Z,5.83
2023-03-17T02:39:35.089Z,4.37
2023-03-17T02:42:03.643Z,5.70
2023-03-17T02:44:31.734Z,6.73
2023-03-17T02:47:01.001Z,5.90
2023-03-17T02:49:31.352Z,9.07
2023-03-17T02:51:59.763Z,8.33
2023-03-17T02:54:29.683Z,7.80
2023-03-17T02:56:58.721Z,6.23
2023-03-17T02:59:27.462Z,6.83
2023-03-17T03:01:57.481Z,7.03
2023-03-17T03:04:26.174Z,5.03
2023-03-17T03:06:54.919Z,6.53
2023-03-17T03:09:24.723Z,6.83
2023-03-17T03:11:54.654Z,4.93
2023-03-17T03:14:23.066Z,5.33
2023-03-17T03:16:52.490Z,5.03
2023-03-17T03:19:20.657Z,7.93
2023-03-17T03:21:48.787Z,4.90
2023-03-17T03:24:17.113Z,8.30
2023-03-17T03:26:46.112Z,7.13
2023-03-17T03:29:16.929Z,5.30
2023-03-17T03:31:45.699Z,4.97
2023-03-17T03:34:14.133Z,5.43
2023-03-17T03:36:43.138Z,5.87
2023-03-17T03:39:14.605Z,8.57
2023-03-17T03:41:43.365Z,4.03
2023-03-17T03:44:14.338Z,4.90
2023-03-17T03:46:44.214Z,4.73
2023-03-17T03:49:12.852Z,6.97
2023-03-17T03:51:41.667Z,5.67
2023-03-17T03:54:10.037Z,7.23
2023-03-17T03:56:40.338Z,6.33
2023-03-17T03:59:09.759Z,5.57
2023-03-17T04:01:39.424Z,5.07
2023-03-17T04:04:09.013Z,5.57
2023-03-17T04:06:37.269Z,4.53
2023-03-17T04:09:06.565Z,5.20
2023-03-17T04:11:34.894Z,5.47
2023-03-17T04:14:03.366Z,4.13
2023-03-17T04:16:32.143Z,4.20
2023-03-17T04:19:00.673Z,5.63
2023-03-17T04:21:30.276Z,5.17
2023-03-17T04:23:58.568Z,4.40
2023-03-17T04:26:27.260Z,5.27
2023-03-17T04:28:55.842Z,5.30
2023-03-17T04:31:24.397Z,5.67
2023-03-17T04:33:53.715Z,6.53
2023-03-17T04:36:25.190Z,6.77
2023-03-17T04:38:54.881Z,5.30
2023-03-17T04:41:23.158Z,6.53
2023-03-17T04:43:51.464Z,4.60
2023-03-17T04:46:20.169Z,6.90
2023-03-17T04:48:48.730Z,4.43
2023-03-17T04:51:17.209Z,4.53
2023-03-17T04:53:45.678Z,6.70
2023-03-17T04:56:15.855Z,4.80
2023-03-17T04:58:44.477Z,7.53
2023-03-17T05:01:14.099Z,4.37
2023-03-17T05:03:42.463Z,4.40
2023-03-17T05:06:11.019Z,7.70
2023-03-17T05:08:39.220Z,3.93
2023-03-17T05:11:11.743Z,4.13
2023-03-17T05:13:42.583Z,4.27
2023-03-17T05:16:11.368Z,4.60
2023-03-17T05:18:39.780Z,6.87
2023-03-17T05:21:07.875Z,6.70
2023-03-17T05:23:36.102Z,5.53
2023-03-17T05:26:07.301Z,7.50
2023-03-17T05:28:35.452Z,3.83
2023-03-17T05:31:10.299Z,5.63
2023-03-17T05:33:39.391Z,5.20
2023-03-17T05:36:08.893Z,6.73
2023-03-17T05:38:37.269Z,9.90
2023-03-17T05:41:05.839Z,7.87
2023-03-17T05:43:34.234Z,4.90
2023-03-17T05:46:02.549Z,7.13
2023-03-17T05:48:32.218Z,8.33
2023-03-17T05:51:00.451Z,6.13
2023-03-17T05:53:31.822Z,4.30
2023-03-17T05:56:11.629Z,5.33
2023-03-17T05:58:40.962Z,8.17
2023-03-17T06:01:09.299Z,4.43
2023-03-17T06:03:39.612Z,5.23
2023-03-17T06:06:09.251Z,4.63
2023-03-17T06:08:38.882Z,6.23
2023-03-17T06:16:37.799Z,4.10
2023-03-17T06:19:08.608Z,5.70
2023-03-17T06:24:18.268Z,5.77
2023-03-17T06:26:46.909Z,3.43
2023-03-17T06:29:15.031Z,4.20
2023-03-17T06:31:50.499Z,5.13
2023-03-17T06:34:20.914Z,5.17
2023-03-17T06:36:49.988Z,5.47
2023-03-17T06:39:18.279Z,4.37
2023-03-17T06:41:46.448Z,4.07
2023-03-17T06:44:29.110Z,5.80
2023-03-17T06:46:57.417Z,5.10
2023-03-17T06:49:27.710Z,11.30
2023-03-17T06:52:08.658Z,5.63
2023-03-17T06:54:37.658Z,5.33
2023-03-17T06:57:06.661Z,10.50
2023-03-17T06:59:36.031Z,7.97
2023-03-17T07:02:05.442Z,7.97
2023-03-17T07:04:37.559Z,4.53
2023-03-17T07:07:06.336Z,12.37
2023-03-17T07:09:35.530Z,5.87
2023-03-17T07:12:16.493Z,4.53
2023-03-17T07:14:45.448Z,7.37
2023-03-17T07:17:14.575Z,5.47
2023-03-17T07:19:44.579Z,3.83
2023-03-17T07:22:13.941Z,6.13
2023-03-17T07:24:43.375Z,3.47
2023-03-17T07:27:11.906Z,8.37
2023-03-17T07:29:40.167Z,5.30
2023-03-17T07:32:09.863Z,7.33
2023-03-17T07:34:38.171Z,3.43
2023-03-17T07:37:07.912Z,7.23
2023-03-17T07:39:36.251Z,4.23
2023-03-17T07:42:05.063Z,7.77
2023-03-17T07:44:33.321Z,5.83
2023-03-17T07:47:01.446Z,8.40
2023-03-17T07:49:40.721Z,6.17
2023-03-17T07:52:12.722Z,5.23
2023-03-17T07:54:43.138Z,5.27
2023-03-17T07:57:12.508Z,7.90
2023-03-17T07:59:41.713Z,7.03
2023-03-17T08:02:15.876Z,7.70
2023-03-17T08:04:44.330Z,8.80
2023-03-17T08:07:14.610Z,6.20
2023-03-17T08:09:43.123Z,5.60
2023-03-17T08:12:12.024Z,4.57
2023-03-17T08:14:41.508Z,5.03
2023-03-17T08:17:10.656Z,3.83
2023-03-17T08:19:39.239Z,6.70
2023-03-17T08:22:08.162Z,5.87
2023-03-17T08:24:39.740Z,9.70
2023-03-17T08:27:08.018Z,3.63
2023-03-17T08:29:36.545Z,7.67
2023-03-17T08:32:04.920Z,5.53
2023-03-17T08:34:33.774Z,11.83
2023-03-17T08:37:02.839Z,8.10
2023-03-17T08:39:32.041Z,4.57
2023-03-17T08:42:02.210Z,3.50
2023-03-17T08:44:30.881Z,6.13
2023-03-17T08:46:59.121Z,4.00
2023-03-17T08:49:28.609Z,3.40
2023-03-17T08:51:56.826Z,4.83
2023-03-17T08:54:25.993Z,5.53
2023-03-17T08:56:54.018Z,2.57
2023-03-17T09:00:06.876Z,4.30
2023-03-17T09:02:55.635Z,5.53
2023-03-17T09:11:31.593Z,3.33
2023-03-17T09:16:48.889Z,4.03
2023-03-17T09:19:18.862Z,3.07
2023-03-17T09:21:47.980Z,4.23
2023-03-17T09:24:16.652Z,2.90
2023-03-17T09:26:45.248Z,2.87
2023-03-17T09:29:15.303Z,2.50
2023-03-17T09:31:44.719Z,2.53
2023-03-17T09:34:13.506Z,3.53
2023-03-17T09:36:45.253Z,4.23
2023-03-17T09:39:19.578Z,2.83
2023-03-17T09:41:57.123Z,6.20
2023-03-17T09:44:57.053Z,5.10
2023-03-17T09:47:36.657Z,2.50
2023-03-17T09:50:06.473Z,4.50
2023-03-17T09:52:36.960Z,4.33
2023-03-17T09:55:07.627Z,4.87
2023-03-17T09:57:38.053Z,2.77
2023-03-17T10:00:10.243Z,2.87
2023-03-17T10:02:40.248Z,4.07
2023-03-17T10:05:12.905Z,3.53
2023-03-17T10:07:48.043Z,5.17
2023-03-17T10:10:18.590Z,5.80
2023-03-17T10:12:51.435Z,2.30
2023-03-17T10:15:23.539Z,4.47
2023-03-17T10:17:55.351Z,3.90
2023-03-17T10:20:28.716Z,3.57
2023-03-17T10:23:00.126Z,2.60
2023-03-17T10:25:31.889Z,4.03
2023-03-17T10:28:01.634Z,7.60
2023-03-17T10:30:33.722Z,2.57
2023-03-17T10:33:03.907Z,5.07
2023-03-17T10:35:36.529Z,3.13
2023-03-17T10:38:17.124Z,2.63
2023-03-17T10:40:49.141Z,3.67
2023-03-17T10:43:23.877Z,3.33
2023-03-17T10:46:01.175Z,2.83
2023-03-17T10:48:31.657Z,3.07
2023-03-17T10:51:01.087Z,2.00
2023-03-17T10:53:38.310Z,5.03
2023-03-17T10:56:10.400Z,3.27
2023-03-17T10:58:41.695Z,5.03
2023-03-17T11:01:18.021Z,3.47
2023-03-17T11:03:46.566Z,2.63
2023-03-17T11:06:16.395Z,8.37
2023-03-17T11:08:50.574Z,3.83
2023-03-17T11:11:27.550Z,4.00
2023-03-17T11:14:04.139Z,6.93
2023-03-17T11:16:35.234Z,3.10
2023-03-17T11:19:04.415Z,9.40
2023-03-17T11:21:34.699Z,3.37
2023-03-17T11:24:06.931Z,6.00
2023-03-17T11:29:40.774Z,3.47
2023-03-17T11:32:19.276Z,6.60
2023-03-17T11:37:50.064Z,4.50
2023-03-17T11:40:23.603Z,4.20
2023-03-17T11:42:59.462Z,3.63
2023-03-17T11:45:31.004Z,5.30
2023-03-17T11:48:06.425Z,2.70
2023-03-17T11:50:42.100Z,4.00
2023-03-17T11:53:16.167Z,7.53
2023-03-17T11:58:40.028Z,4.33
2023-03-17T12:01:11.409Z,3.27
2023-03-17T12:03:43.374Z,6.63
2023-03-17T12:06:15.564Z,2.83
2023-03-17T12:08:45.924Z,6.10
2023-03-17T12:11:17.566Z,2.17
2023-03-17T12:13:49.555Z,5.13
2023-03-17T12:16:21.344Z,6.97
2023-03-17T12:18:55.925Z,2.83
2023-03-17T12:21:27.254Z,3.27
2023-03-17T12:24:00.738Z,9.83
2023-03-17T12:26:35.622Z,3.67
2023-03-17T12:29:07.539Z,2.50
2023-03-17T12:31:37.774Z,5.77
2023-03-17T12:34:08.483Z,6.37
2023-03-17T12:36:38.175Z,3.50
2023-03-17T12:39:11.420Z,7.50
2023-03-17T12:41:49.119Z,4.37
2023-03-17T12:44:24.438Z,4.37
2023-03-17T12:47:07.999Z,7.27
2023-03-17T12:49:43.096Z,3.97
2023-03-17T12:52:18.511Z,3.20
2023-03-17T12:54:50.142Z,9.87
2023-03-17T12:57:22.908Z,4.43
2023-03-17T12:59:52.457Z,3.47
2023-03-17T13:02:25.701Z,3.43
2023-03-17T13:04:59.304Z,3.83
2023-03-17T13:07:29.059Z,3.30
2023-03-17T13:10:17.187Z,6.90
2023-03-17T13:13:07.939Z,3.23
2023-03-17T13:16:00.716Z,4.37
2023-03-17T13:18:46.085Z,4.07
2023-03-17T13:21:16.493Z,4.33
2023-03-17T13:23:46.380Z,5.10
2023-03-17T13:26:19.054Z,4.93
2023-03-17T13:28:51.463Z,7.73
2023-03-17T13:31:38.846Z,4.73
2023-03-17T13:34:24.136Z,5.23
2023-03-17T13:37:05.660Z,6.70
2023-03-17T13:39:55.909Z,5.70
2023-03-17T13:42:46.065Z,6.87
2023-03-17T13:45:34.495Z,4.30
2023-03-17T13:54:34.270Z,5.23
2023-03-17T13:57:17.557Z,6.30
2023-03-17T13:59:55.955Z,3.63
2023-03-17T14:02:43.793Z,5.07
2023-03-17T14:05:21.026Z,5.07
2023-03-17T14:07:59.478Z,5.83
2023-03-17T14:31:25.072Z,4.50
2023-03-17T14:33:55.152Z,3.40
2023-03-17T14:36:23.827Z,2.67
2023-03-17T14:38:53.612Z,5.03
2023-03-17T14:41:26.906Z,3.60
2023-03-17T14:43:59.589Z,3.40
2023-03-17T14:46:34.906Z,4.73
2023-03-17T14:49:09.716Z,5.63
2023-03-17T14:51:39.380Z,6.30
2023-03-17T14:54:13.635Z,4.97
2023-03-17T14:56:48.670Z,6.53
2023-03-17T14:59:20.596Z,4.10
2023-03-17T15:01:55.437Z,5.93
2023-03-17T15:04:25.849Z,5.50
2023-03-17T15:09:36.577Z,4.03
2023-03-17T15:12:07.025Z,3.17
2023-03-17T15:14:36.544Z,13.27
2023-03-17T15:17:07.821Z,9.57
2023-03-17T15:19:40.321Z,6.43
2023-03-17T15:22:23.438Z,6.23
2023-03-17T15:24:53.935Z,3.93
2023-03-17T15:27:22.485Z,8.57
2023-03-17T15:29:51.029Z,9.97
2023-03-17T15:32:21.936Z,4.10
2023-03-17T15:34:50.960Z,6.07
2023-03-17T15:37:20.763Z,8.00
2023-03-17T15:39:50.032Z,3.40
2023-03-17T15:42:23.094Z,8.13
2023-03-17T15:44:51.625Z,3.60
2023-03-17T15:47:22.235Z,5.90
2023-03-17T15:49:53.151Z,14.63
2023-03-17T15:52:24.838Z,4.13
2023-03-17T15:54:53.589Z,3.60
2023-03-17T15:57:22.051Z,6.40
2023-03-17T15:59:50.501Z,4.77
2023-03-17T16:02:27.413Z,3.20
2023-03-17T16:04:59.306Z,4.27
2023-03-17T16:07:28.352Z,5.60
2023-03-17T16:09:56.837Z,4.07
2023-03-17T16:12:25.127Z,5.60
2023-03-17T16:14:54.113Z,3.17
2023-03-17T16:17:26.885Z,6.37
2023-03-17T16:19:57.090Z,5.43
2023-03-17T16:26:13.899Z,5.83
2023-03-17T16:28:44.676Z,5.00
2023-03-17T16:31:18.638Z,8.17
2023-03-17T16:33:47.275Z,4.33
2023-03-17T16:36:18.353Z,5.80
2023-03-17T16:38:47.355Z,4.20
2023-03-17T16:41:19.068Z,3.37
2023-03-17T16:43:50.939Z,5.70
2023-03-17T16:46:19.533Z,9.60
2023-03-17T16:48:49.600Z,5.57
2023-03-17T16:51:19.566Z,4.67
2023-03-17T16:53:48.340Z,4.27
2023-03-17T16:56:18.325Z,8.37
2023-03-17T16:58:47.219Z,4.43
2023-03-17T17:01:17.226Z,4.50
2023-03-17T17:03:46.330Z,4.23
2023-03-17T17:06:15.536Z,4.30
2023-03-17T17:08:46.251Z,6.07
2023-03-17T17:11:15.056Z,10.73
2023-03-17T17:13:43.853Z,4.00
2023-03-17T17:16:18.101Z,5.97
2023-03-17T17:18:47.338Z,9.20
2023-03-17T17:21:15.834Z,6.57
2023-03-17T17:23:44.358Z,8.13
2023-03-17T17:26:14.220Z,3.37
2023-03-17T17:28:42.788Z,3.40
2023-03-17T17:31:11.997Z,5.50
2023-03-17T17:33:44.339Z,10.63
2023-03-17T17:36:15.469Z,6.10
2023-03-17T17:38:44.158Z,3.23
2023-03-17T17:41:16.922Z,7.57
2023-03-17T17:43:46.834Z,5.07
2023-03-17T17:46:17.967Z,8.93
2023-03-17T17:48:46.765Z,6.13
2023-03-17T17:51:15.908Z,6.40
2023-03-17T17:53:44.555Z,6.43
2023-03-17T17:56:17.853Z,9.00
2023-03-17T17:59:00.579Z,8.20
2023-03-17T18:01:29.183Z,7.67
2023-03-17T18:03:57.669Z,5.60
2023-03-17T18:06:26.224Z,7.87
2023-03-17T18:08:55.297Z,6.33
2023-03-17T18:11:25.541Z,3.97
2023-03-17T18:13:54.405Z,4.93
2023-03-17T18:16:23.088Z,7.07
2023-03-17T18:22:34.860Z,3.33
2023-03-17T18:25:03.707Z,5.27
2023-03-17T18:27:33.658Z,10.23
2023-03-17T18:30:02.600Z,11.70
2023-03-17T18:32:31.954Z,7.50
2023-03-17T18:35:02.852Z,11.30
2023-03-17T18:37:33.385Z,4.53
2023-03-17T18:40:14.279Z,4.83
2023-03-17T18:42:46.259Z,4.93
2023-03-17T18:45:15.324Z,9.27
2023-03-17T18:47:43.880Z,5.07
2023-03-17T18:50:13.294Z,9.87
2023-03-17T18:52:42.508Z,8.80
2023-03-17T18:55:12.435Z,9.17
2023-03-17T18:57:43.166Z,6.07
2023-03-17T19:00:18.213Z,6.20
2023-03-17T19:02:47.778Z,7.70
2023-03-17T19:05:16.551Z,9.50
2023-03-17T19:07:46.370Z,8.10
2023-03-17T19:10:17.416Z,9.60
2023-03-17T19:12:47.567Z,9.70
2023-03-17T19:15:31.206Z,8.70
2023-03-17T19:18:02.133Z,9.37
2023-03-17T19:20:39.382Z,6.03
2023-03-17T19:29:04.077Z,10.93
2023-03-17T19:34:57.553Z,10.37
2023-03-17T19:37:37.698Z,11.30
2023-03-17T19:40:08.727Z,10.17
2023-03-17T19:42:38.007Z,8.93
2023-03-17T19:45:08.176Z,10.40
2023-03-17T19:47:36.895Z,11.93
2023-03-17T19:50:07.361Z,12.17
2023-03-17T19:52:35.926Z,9.60
2023-03-17T19:55:06.997Z,10.90
2023-03-17T19:57:37.228Z,14.10
2023-03-17T20:00:09.015Z,15.27
2023-03-17T20:05:20.733Z,9.97
2023-03-17T20:07:49.865Z,13.27
2023-03-17T20:10:21.567Z,11.33
2023-03-17T20:12:50.551Z,10.10
2023-03-17T20:15:19.549Z,10.37
2023-03-17T20:17:57.745Z,9.23
2023-03-17T20:20:27.644Z,6.50
2023-03-17T20:22:56.386Z,13.23
2023-03-17T20:25:25.016Z,10.27
2023-03-17T20:27:55.259Z,11.70
2023-03-17T20:30:24.710Z,13.67
2023-03-17T20:32:55.313Z,14.97
2023-03-17T20:35:24.731Z,14.47
2023-03-17T20:37:57.054Z,13.10
2023-03-17T20:40:27.343Z,11.83
2023-03-17T20:42:56.047Z,12.60
2023-03-17T20:45:24.798Z,9.13
2023-03-17T20:47:53.793Z,12.57
2023-03-17T20:50:22.822Z,15.63
2023-03-17T20:52:51.485Z,15.43
2023-03-17T20:55:22.350Z,16.97
2023-03-17T20:57:51.501Z,8.40
2023-03-17T21:00:22.243Z,10.53
2023-03-17T21:02:51.122Z,8.23
2023-03-17T21:05:23.428Z,19.90
2023-03-17T21:07:52.171Z,11.20
2023-03-17T21:10:22.478Z,12.13
2023-03-17T21:12:50.871Z,9.60
2023-03-17T21:15:19.958Z,12.20
2023-03-17T21:17:48.360Z,8.07
2023-03-17T21:20:16.981Z,10.90
2023-03-17T21:22:46.103Z,11.80
2023-03-17T21:25:14.889Z,9.83
2023-03-17T21:27:45.730Z,11.13
2023-03-17T21:30:15.189Z,11.87
2023-03-17T21:32:43.917Z,10.93
2023-03-17T21:35:12.674Z,14.80
2023-03-17T21:37:43.767Z,12.00
2023-03-17T21:40:13.669Z,11.63
2023-03-17T21:42:42.184Z,9.13
2023-03-17T21:45:13.680Z,11.50
2023-03-17T21:47:42.692Z,14.27
2023-03-17T21:50:11.846Z,8.53
2023-03-17T21:52:40.558Z,10.00
2023-03-17T21:55:10.674Z,11.20
2023-03-17T21:57:39.138Z,11.07
2023-03-17T22:00:12.787Z,10.07
2023-03-17T22:02:43.097Z,10.03
2023-03-17T22:05:11.832Z,12.57
2023-03-17T22:07:41.911Z,14.47
2023-03-17T22:10:11.379Z,11.53
2023-03-17T22:12:40.190Z,11.33
2023-03-17T22:15:10.389Z,11.93
2023-03-17T22:17:39.695Z,14.23
2023-03-17T22:20:10.830Z,16.93
2023-03-17T22:22:39.957Z,14.50
2023-03-17T22:25:08.781Z,12.30
2023-03-17T22:27:37.676Z,12.87
2023-03-17T22:30:06.607Z,15.17
2023-03-17T22:32:35.214Z,13.87
2023-03-17T22:35:04.382Z,19.37
2023-03-17T22:37:34.348Z,12.53
2023-03-17T22:40:04.422Z,10.73
2023-03-17T22:42:32.998Z,11.53
2023-03-17T22:45:01.436Z,18.57
2023-03-17T22:47:30.049Z,17.73
2023-03-17T22:49:58.340Z,11.63
2023-03-17T22:52:27.027Z,13.17
2023-03-17T22:54:57.099Z,10.93
2023-03-17T22:57:25.409Z,17.10
2023-03-17T22:59:55.226Z,11.07
2023-03-17T23:02:23.569Z,9.47
2023-03-17T23:04:52.195Z,11.87
2023-03-17T23:07:20.681Z,9.63
2023-03-17T23:09:49.381Z,7.40
2023-03-17T23:12:23.035Z,7.90
2023-03-17T23:14:51.546Z,9.93
2023-03-17T23:17:20.221Z,8.27
2023-03-17T23:19:48.667Z,10.43
2023-03-17T23:22:17.025Z,9.53
2023-03-17T23:24:45.427Z,9.13
2023-03-17T23:27:14.067Z,11.47
2023-03-17T23:29:44.669Z,10.77
2023-03-17T23:32:13.847Z,8.17
2023-03-17T23:34:42.367Z,7.73
2023-03-17T23:37:11.484Z,11.30
2023-03-17T23:39:40.418Z,9.73
2023-03-17T23:42:08.994Z,6.83
2023-03-17T23:44:37.402Z,7.53
2023-03-17T23:47:07.484Z,7.73
2023-03-17T23:49:35.945Z,6.93
2023-03-17T23:52:04.698Z,8.13
2023-03-17T23:54:33.386Z,7.77
2023-03-17T23:57:02.450Z,10.50
2023-03-17T23:59:31.031Z,7.50
